sensor_id;sensor_type;location;lat;lon;timestamp;P1;durP1;ratioP1;P2;durP2;ratioP2
32633;SDS011;19043;51.012;5.648;2022-12-24T00:01:58;38.00;;;11.20;;
32633;SDS011;19043;51.012;5.648;2022-12-24T00:04:23;34.50;;;11.77;;
32633;SDS011;19043;51.012;5.648;2022-12-24T00:06:49;34.20;;;11.48;;
32633;SDS011;19043;51.012;5.648;2022-12-24T00:09:14;38.15;;;11.73;;
32633;SDS011;19043;51.012;5.648;2022-12-24T00:11:39;34.95;;;10.45;;
32633;SDS011;19043;51.012;5.648;2022-12-24T00:14:04;42.08;;;11.18;;
32633;SDS011;19043;51.012;5.648;2022-12-24T00:16:30;38.90;;;12.45;;
32633;SDS011;19043;51.012;5.648;2022-12-24T00:18:55;39.85;;;11.73;;
32633;SDS011;19043;51.012;5.648;2022-12-24T00:21:20;31.27;;;10.45;;
32633;SDS011;19043;51.012;5.648;2022-12-24T00:23:46;40.15;;;10.95;;
32633;SDS011;19043;51.012;5.648;2022-12-24T00:26:11;40.55;;;11.32;;
32633;SDS011;19043;51.012;5.648;2022-12-24T00:28:37;37.33;;;11.60;;
32633;SDS011;19043;51.012;5.648;2022-12-24T00:31:09;27.95;;;9.98;;
32633;SDS011;19043;51.012;5.648;2022-12-24T00:33:35;35.45;;;10.85;;
32633;SDS011;19043;51.012;5.648;2022-12-24T00:36:00;40.22;;;11.00;;
32633;SDS011;19043;51.012;5.648;2022-12-24T00:38:25;35.00;;;9.73;;
32633;SDS011;19043;51.012;5.648;2022-12-24T00:40:51;34.78;;;10.50;;
32633;SDS011;19043;51.012;5.648;2022-12-24T00:43:16;36.90;;;11.32;;
32633;SDS011;19043;51.012;5.648;2022-12-24T00:45:41;25.52;;;9.57;;
32633;SDS011;19043;51.012;5.648;2022-12-24T00:48:06;33.80;;;9.70;;
32633;SDS011;19043;51.012;5.648;2022-12-24T00:50:32;45.00;;;10.50;;
32633;SDS011;19043;51.012;5.648;2022-12-24T00:52:57;34.45;;;10.15;;
32633;SDS011;19043;51.012;5.648;2022-12-24T00:55:22;32.58;;;9.70;;
32633;SDS011;19043;51.012;5.648;2022-12-24T00:57:48;30.80;;;8.82;;
32633;SDS011;19043;51.012;5.648;2022-12-24T01:00:13;34.72;;;10.65;;
32633;SDS011;19043;51.012;5.648;2022-12-24T01:02:41;28.17;;;10.45;;
32633;SDS011;19043;51.012;5.648;2022-12-24T01:05:06;38.70;;;9.50;;
32633;SDS011;19043;51.012;5.648;2022-12-24T01:07:35;24.90;;;8.70;;
32633;SDS011;19043;51.012;5.648;2022-12-24T01:10:01;41.17;;;10.20;;
32633;SDS011;19043;51.012;5.648;2022-12-24T01:12:26;42.13;;;10.40;;
32633;SDS011;19043;51.012;5.648;2022-12-24T01:14:52;27.60;;;8.75;;
32633;SDS011;19043;51.012;5.648;2022-12-24T01:17:17;31.85;;;8.35;;
32633;SDS011;19043;51.012;5.648;2022-12-24T01:19:42;35.55;;;10.27;;
32633;SDS011;19043;51.012;5.648;2022-12-24T01:22:07;51.05;;;10.13;;
32633;SDS011;19043;51.012;5.648;2022-12-24T01:24:33;37.03;;;9.30;;
32633;SDS011;19043;51.012;5.648;2022-12-24T01:26:58;44.33;;;10.05;;
32633;SDS011;19043;51.012;5.648;2022-12-24T01:29:23;33.65;;;10.00;;
32633;SDS011;19043;51.012;5.648;2022-12-24T01:31:49;32.28;;;9.20;;
32633;SDS011;19043;51.012;5.648;2022-12-24T01:34:14;36.75;;;10.13;;
32633;SDS011;19043;51.012;5.648;2022-12-24T01:36:39;40.03;;;10.18;;
32633;SDS011;19043;51.012;5.648;2022-12-24T01:39:04;44.03;;;10.45;;
32633;SDS011;19043;51.012;5.648;2022-12-24T01:41:30;32.88;;;8.82;;
32633;SDS011;19043;51.012;5.648;2022-12-24T01:44:18;30.58;;;9.73;;
32633;SDS011;19043;51.012;5.648;2022-12-24T01:46:44;33.03;;;10.07;;
32633;SDS011;19043;51.012;5.648;2022-12-24T01:49:10;33.03;;;9.25;;
32633;SDS011;19043;51.012;5.648;2022-12-24T01:51:48;35.13;;;9.85;;
32633;SDS011;19043;51.012;5.648;2022-12-24T01:54:20;28.27;;;9.32;;
32633;SDS011;19043;51.012;5.648;2022-12-24T01:56:48;29.02;;;8.32;;
32633;SDS011;19043;51.012;5.648;2022-12-24T01:59:15;30.90;;;10.02;;
32633;SDS011;19043;51.012;5.648;2022-12-24T02:01:42;32.88;;;9.38;;
32633;SDS011;19043;51.012;5.648;2022-12-24T02:04:52;33.92;;;9.75;;
32633;SDS011;19043;51.012;5.648;2022-12-24T02:06:56;32.63;;;8.63;;
32633;SDS011;19043;51.012;5.648;2022-12-24T02:09:21;32.15;;;10.00;;
32633;SDS011;19043;51.012;5.648;2022-12-24T02:11:46;36.97;;;9.48;;
32633;SDS011;19043;51.012;5.648;2022-12-24T02:14:12;26.95;;;7.93;;
32633;SDS011;19043;51.012;5.648;2022-12-24T02:16:44;27.73;;;8.68;;
32633;SDS011;19043;51.012;5.648;2022-12-24T02:21:43;31.20;;;10.65;;
32633;SDS011;19043;51.012;5.648;2022-12-24T02:31:49;22.10;;;8.87;;
32633;SDS011;19043;51.012;5.648;2022-12-24T02:34:17;25.83;;;8.73;;
32633;SDS011;19043;51.012;5.648;2022-12-24T02:39:19;30.27;;;9.95;;
32633;SDS011;19043;51.012;5.648;2022-12-24T02:41:47;33.28;;;9.20;;
32633;SDS011;19043;51.012;5.648;2022-12-24T02:44:33;23.92;;;8.52;;
32633;SDS011;19043;51.012;5.648;2022-12-24T02:47:00;28.15;;;9.23;;
32633;SDS011;19043;51.012;5.648;2022-12-24T02:49:27;26.40;;;8.18;;
32633;SDS011;19043;51.012;5.648;2022-12-24T02:51:53;18.10;;;7.70;;
32633;SDS011;19043;51.012;5.648;2022-12-24T02:54:18;26.00;;;8.40;;
32633;SDS011;19043;51.012;5.648;2022-12-24T03:05:01;23.02;;;7.68;;
32633;SDS011;19043;51.012;5.648;2022-12-24T03:12:23;23.45;;;7.50;;
32633;SDS011;19043;51.012;5.648;2022-12-24T03:14:50;23.40;;;8.23;;
32633;SDS011;19043;51.012;5.648;2022-12-24T03:17:16;17.25;;;6.72;;
32633;SDS011;19043;51.012;5.648;2022-12-24T03:19:42;17.75;;;6.85;;
32633;SDS011;19043;51.012;5.648;2022-12-24T03:22:08;14.63;;;6.50;;
32633;SDS011;19043;51.012;5.648;2022-12-24T03:24:34;16.75;;;5.50;;
32633;SDS011;19043;51.012;5.648;2022-12-24T03:26:59;23.25;;;6.38;;
32633;SDS011;19043;51.012;5.648;2022-12-24T03:29:25;27.08;;;6.32;;
32633;SDS011;19043;51.012;5.648;2022-12-24T03:31:51;19.27;;;6.03;;
32633;SDS011;19043;51.012;5.648;2022-12-24T03:34:17;20.70;;;5.53;;
32633;SDS011;19043;51.012;5.648;2022-12-24T03:36:43;19.40;;;5.95;;
32633;SDS011;19043;51.012;5.648;2022-12-24T03:39:08;16.70;;;6.60;;
32633;SDS011;19043;51.012;5.648;2022-12-24T03:41:34;19.08;;;6.82;;
32633;SDS011;19043;51.012;5.648;2022-12-24T03:44:00;24.70;;;6.82;;
32633;SDS011;19043;51.012;5.648;2022-12-24T03:46:25;28.45;;;6.60;;
32633;SDS011;19043;51.012;5.648;2022-12-24T03:48:50;18.40;;;7.45;;
32633;SDS011;19043;51.012;5.648;2022-12-24T03:51:16;21.98;;;7.47;;
32633;SDS011;19043;51.012;5.648;2022-12-24T03:53:42;17.40;;;6.45;;
32633;SDS011;19043;51.012;5.648;2022-12-24T03:56:07;21.75;;;7.43;;
32633;SDS011;19043;51.012;5.648;2022-12-24T03:58:32;27.45;;;7.28;;
32633;SDS011;19043;51.012;5.648;2022-12-24T04:00:57;23.02;;;7.68;;
32633;SDS011;19043;51.012;5.648;2022-12-24T04:03:23;35.47;;;8.40;;
32633;SDS011;19043;51.012;5.648;2022-12-24T04:05:58;25.90;;;7.35;;
32633;SDS011;19043;51.012;5.648;2022-12-24T04:08:23;29.73;;;8.40;;
32633;SDS011;19043;51.012;5.648;2022-12-24T04:10:48;22.05;;;8.63;;
32633;SDS011;19043;51.012;5.648;2022-12-24T04:13:13;25.90;;;7.97;;
32633;SDS011;19043;51.012;5.648;2022-12-24T04:15:39;28.35;;;9.60;;
32633;SDS011;19043;51.012;5.648;2022-12-24T04:18:04;24.13;;;9.02;;
32633;SDS011;19043;51.012;5.648;2022-12-24T04:20:29;30.13;;;9.38;;
32633;SDS011;19043;51.012;5.648;2022-12-24T04:22:54;32.58;;;9.65;;
32633;SDS011;19043;51.012;5.648;2022-12-24T04:25:20;22.77;;;8.65;;
32633;SDS011;19043;51.012;5.648;2022-12-24T04:27:45;30.50;;;9.88;;
32633;SDS011;19043;51.012;5.648;2022-12-24T04:30:10;28.38;;;8.95;;
32633;SDS011;19043;51.012;5.648;2022-12-24T04:32:35;32.15;;;10.07;;
32633;SDS011;19043;51.012;5.648;2022-12-24T04:35:01;30.65;;;10.02;;
32633;SDS011;19043;51.012;5.648;2022-12-24T04:37:26;38.97;;;9.45;;
32633;SDS011;19043;51.012;5.648;2022-12-24T04:39:52;25.75;;;8.65;;
32633;SDS011;19043;51.012;5.648;2022-12-24T04:42:17;31.48;;;9.55;;
32633;SDS011;19043;51.012;5.648;2022-12-24T04:44:42;32.28;;;8.88;;
32633;SDS011;19043;51.012;5.648;2022-12-24T04:47:08;26.83;;;9.32;;
32633;SDS011;19043;51.012;5.648;2022-12-24T04:49:34;28.85;;;9.48;;
32633;SDS011;19043;51.012;5.648;2022-12-24T04:51:59;35.60;;;9.02;;
32633;SDS011;19043;51.012;5.648;2022-12-24T04:54:25;31.47;;;9.53;;
32633;SDS011;19043;51.012;5.648;2022-12-24T04:56:50;42.85;;;10.10;;
32633;SDS011;19043;51.012;5.648;2022-12-24T04:59:15;39.50;;;9.43;;
32633;SDS011;19043;51.012;5.648;2022-12-24T05:01:40;22.52;;;9.93;;
32633;SDS011;19043;51.012;5.648;2022-12-24T05:04:06;22.77;;;8.88;;
32633;SDS011;19043;51.012;5.648;2022-12-24T05:06:31;35.22;;;9.65;;
32633;SDS011;19043;51.012;5.648;2022-12-24T05:08:57;33.20;;;9.00;;
32633;SDS011;19043;51.012;5.648;2022-12-24T05:11:22;32.58;;;9.98;;
32633;SDS011;19043;51.012;5.648;2022-12-24T05:13:48;23.90;;;10.35;;
32633;SDS011;19043;51.012;5.648;2022-12-24T05:16:14;33.25;;;10.75;;
32633;SDS011;19043;51.012;5.648;2022-12-24T05:18:39;26.77;;;10.30;;
32633;SDS011;19043;51.012;5.648;2022-12-24T05:21:12;31.45;;;9.70;;
32633;SDS011;19043;51.012;5.648;2022-12-24T05:23:38;21.37;;;8.83;;
32633;SDS011;19043;51.012;5.648;2022-12-24T05:28:52;30.65;;;10.57;;
32633;SDS011;19043;51.012;5.648;2022-12-24T05:31:18;33.55;;;10.60;;
32633;SDS011;19043;51.012;5.648;2022-12-24T05:33:43;37.40;;;9.50;;
32633;SDS011;19043;51.012;5.648;2022-12-24T05:36:08;32.08;;;10.32;;
32633;SDS011;19043;51.012;5.648;2022-12-24T05:38:34;29.02;;;9.55;;
32633;SDS011;19043;51.012;5.648;2022-12-24T05:40:59;29.42;;;9.50;;
32633;SDS011;19043;51.012;5.648;2022-12-24T05:43:24;42.75;;;11.13;;
32633;SDS011;19043;51.012;5.648;2022-12-24T05:45:50;47.22;;;12.00;;
32633;SDS011;19043;51.012;5.648;2022-12-24T05:48:15;40.33;;;10.60;;
32633;SDS011;19043;51.012;5.648;2022-12-24T05:50:40;23.10;;;8.90;;
32633;SDS011;19043;51.012;5.648;2022-12-24T05:53:06;28.50;;;10.85;;
32633;SDS011;19043;51.012;5.648;2022-12-24T05:55:31;38.00;;;11.35;;
32633;SDS011;19043;51.012;5.648;2022-12-24T05:57:57;27.02;;;9.95;;
32633;SDS011;19043;51.012;5.648;2022-12-24T06:00:22;37.55;;;10.43;;
32633;SDS011;19043;51.012;5.648;2022-12-24T06:02:47;35.38;;;11.20;;
32633;SDS011;19043;51.012;5.648;2022-12-24T06:05:13;41.20;;;10.88;;
32633;SDS011;19043;51.012;5.648;2022-12-24T06:07:38;36.00;;;10.85;;
32633;SDS011;19043;51.012;5.648;2022-12-24T06:10:04;31.17;;;11.05;;
32633;SDS011;19043;51.012;5.648;2022-12-24T06:12:29;28.55;;;9.75;;
32633;SDS011;19043;51.012;5.648;2022-12-24T06:14:58;34.42;;;10.80;;
32633;SDS011;19043;51.012;5.648;2022-12-24T06:17:23;35.97;;;10.55;;
32633;SDS011;19043;51.012;5.648;2022-12-24T06:19:49;29.75;;;9.82;;
32633;SDS011;19043;51.012;5.648;2022-12-24T06:22:14;31.40;;;10.23;;
32633;SDS011;19043;51.012;5.648;2022-12-24T06:24:39;40.78;;;10.30;;
32633;SDS011;19043;51.012;5.648;2022-12-24T06:27:05;34.15;;;10.07;;
32633;SDS011;19043;51.012;5.648;2022-12-24T06:29:30;28.17;;;10.10;;
32633;SDS011;19043;51.012;5.648;2022-12-24T06:31:55;28.83;;;10.68;;
32633;SDS011;19043;51.012;5.648;2022-12-24T06:34:21;33.90;;;10.10;;
32633;SDS011;19043;51.012;5.648;2022-12-24T06:36:46;35.95;;;10.88;;
32633;SDS011;19043;51.012;5.648;2022-12-24T06:39:11;35.08;;;10.85;;
32633;SDS011;19043;51.012;5.648;2022-12-24T06:41:36;43.88;;;10.38;;
32633;SDS011;19043;51.012;5.648;2022-12-24T06:44:02;36.13;;;10.27;;
32633;SDS011;19043;51.012;5.648;2022-12-24T06:46:27;29.38;;;9.82;;
32633;SDS011;19043;51.012;5.648;2022-12-24T06:48:52;33.97;;;9.23;;
32633;SDS011;19043;51.012;5.648;2022-12-24T06:51:19;32.53;;;9.02;;
32633;SDS011;19043;51.012;5.648;2022-12-24T06:53:44;39.17;;;9.60;;
32633;SDS011;19043;51.012;5.648;2022-12-24T06:56:11;25.88;;;9.98;;
32633;SDS011;19043;51.012;5.648;2022-12-24T06:58:36;29.52;;;9.73;;
32633;SDS011;19043;51.012;5.648;2022-12-24T07:01:05;31.05;;;9.48;;
32633;SDS011;19043;51.012;5.648;2022-12-24T07:03:31;30.15;;;9.80;;
32633;SDS011;19043;51.012;5.648;2022-12-24T07:05:56;27.83;;;9.90;;
32633;SDS011;19043;51.012;5.648;2022-12-24T07:08:22;27.13;;;9.70;;
32633;SDS011;19043;51.012;5.648;2022-12-24T07:10:48;28.08;;;10.02;;
32633;SDS011;19043;51.012;5.648;2022-12-24T07:13:13;32.40;;;11.23;;
32633;SDS011;19043;51.012;5.648;2022-12-24T07:15:38;29.92;;;9.77;;
32633;SDS011;19043;51.012;5.648;2022-12-24T07:18:04;25.95;;;8.70;;
32633;SDS011;19043;51.012;5.648;2022-12-24T07:20:29;33.88;;;9.93;;
32633;SDS011;19043;51.012;5.648;2022-12-24T07:22:54;24.67;;;8.82;;
32633;SDS011;19043;51.012;5.648;2022-12-24T07:25:19;27.80;;;9.02;;
32633;SDS011;19043;51.012;5.648;2022-12-24T07:27:45;31.23;;;9.93;;
32633;SDS011;19043;51.012;5.648;2022-12-24T07:30:10;38.85;;;11.23;;
32633;SDS011;19043;51.012;5.648;2022-12-24T07:32:36;28.60;;;9.38;;
32633;SDS011;19043;51.012;5.648;2022-12-24T07:35:01;38.75;;;10.77;;
32633;SDS011;19043;51.012;5.648;2022-12-24T07:37:27;32.67;;;10.07;;
32633;SDS011;19043;51.012;5.648;2022-12-24T07:39:52;27.67;;;9.57;;
32633;SDS011;19043;51.012;5.648;2022-12-24T07:42:17;37.53;;;10.98;;
32633;SDS011;19043;51.012;5.648;2022-12-24T07:44:42;30.48;;;10.27;;
32633;SDS011;19043;51.012;5.648;2022-12-24T07:47:08;36.70;;;13.20;;
32633;SDS011;19043;51.012;5.648;2022-12-24T07:49:33;33.78;;;14.88;;
32633;SDS011;19043;51.012;5.648;2022-12-24T07:52:00;27.88;;;9.57;;
32633;SDS011;19043;51.012;5.648;2022-12-24T07:54:25;35.47;;;11.25;;
32633;SDS011;19043;51.012;5.648;2022-12-24T07:56:50;41.70;;;12.73;;
32633;SDS011;19043;51.012;5.648;2022-12-24T07:59:16;30.17;;;10.07;;
32633;SDS011;19043;51.012;5.648;2022-12-24T08:01:41;32.30;;;10.27;;
32633;SDS011;19043;51.012;5.648;2022-12-24T08:04:06;37.53;;;9.50;;
32633;SDS011;19043;51.012;5.648;2022-12-24T08:06:32;27.40;;;10.52;;
32633;SDS011;19043;51.012;5.648;2022-12-24T08:08:57;35.47;;;10.70;;
32633;SDS011;19043;51.012;5.648;2022-12-24T08:11:22;34.28;;;11.30;;
32633;SDS011;19043;51.012;5.648;2022-12-24T08:13:47;41.27;;;12.13;;
32633;SDS011;19043;51.012;5.648;2022-12-24T08:16:13;32.90;;;11.50;;
32633;SDS011;19043;51.012;5.648;2022-12-24T08:18:38;35.22;;;11.23;;
32633;SDS011;19043;51.012;5.648;2022-12-24T08:21:05;20.73;;;8.43;;
32633;SDS011;19043;51.012;5.648;2022-12-24T08:23:31;36.75;;;10.27;;
32633;SDS011;19043;51.012;5.648;2022-12-24T08:25:56;33.25;;;10.52;;
32633;SDS011;19043;51.012;5.648;2022-12-24T08:28:21;30.35;;;10.00;;
32633;SDS011;19043;51.012;5.648;2022-12-24T08:30:47;28.48;;;9.90;;
32633;SDS011;19043;51.012;5.648;2022-12-24T08:33:13;22.58;;;10.23;;
32633;SDS011;19043;51.012;5.648;2022-12-24T08:35:39;33.22;;;9.88;;
32633;SDS011;19043;51.012;5.648;2022-12-24T08:38:04;40.78;;;11.75;;
32633;SDS011;19043;51.012;5.648;2022-12-24T08:40:29;26.00;;;10.45;;
32633;SDS011;19043;51.012;5.648;2022-12-24T08:42:54;27.50;;;11.15;;
32633;SDS011;19043;51.012;5.648;2022-12-24T08:45:20;36.55;;;10.43;;
32633;SDS011;19043;51.012;5.648;2022-12-24T08:47:45;31.80;;;10.05;;
32633;SDS011;19043;51.012;5.648;2022-12-24T08:50:10;46.08;;;10.65;;
32633;SDS011;19043;51.012;5.648;2022-12-24T08:52:36;25.30;;;10.43;;
32633;SDS011;19043;51.012;5.648;2022-12-24T08:55:01;27.42;;;10.50;;
32633;SDS011;19043;51.012;5.648;2022-12-24T08:57:26;44.05;;;10.60;;
32633;SDS011;19043;51.012;5.648;2022-12-24T08:59:51;31.65;;;9.95;;
32633;SDS011;19043;51.012;5.648;2022-12-24T09:02:17;31.08;;;9.77;;
32633;SDS011;19043;51.012;5.648;2022-12-24T09:04:42;31.42;;;10.55;;
32633;SDS011;19043;51.012;5.648;2022-12-24T09:07:08;40.92;;;12.35;;
32633;SDS011;19043;51.012;5.648;2022-12-24T09:09:34;26.05;;;10.25;;
32633;SDS011;19043;51.012;5.648;2022-12-24T09:11:59;37.00;;;10.98;;
32633;SDS011;19043;51.012;5.648;2022-12-24T09:14:25;43.85;;;11.02;;
32633;SDS011;19043;51.012;5.648;2022-12-24T09:16:50;35.38;;;11.77;;
32633;SDS011;19043;51.012;5.648;2022-12-24T09:19:15;39.00;;;10.80;;
32633;SDS011;19043;51.012;5.648;2022-12-24T09:21:41;33.75;;;11.30;;
32633;SDS011;19043;51.012;5.648;2022-12-24T09:24:06;47.08;;;12.15;;
32633;SDS011;19043;51.012;5.648;2022-12-24T09:26:31;34.03;;;11.68;;
32633;SDS011;19043;51.012;5.648;2022-12-24T09:28:57;38.22;;;11.00;;
32633;SDS011;19043;51.012;5.648;2022-12-24T09:31:23;25.13;;;9.90;;
32633;SDS011;19043;51.012;5.648;2022-12-24T09:33:49;41.10;;;10.63;;
32633;SDS011;19043;51.012;5.648;2022-12-24T09:36:15;32.75;;;10.70;;
32633;SDS011;19043;51.012;5.648;2022-12-24T09:38:40;38.38;;;12.27;;
32633;SDS011;19043;51.012;5.648;2022-12-24T09:43:37;36.53;;;12.05;;
32633;SDS011;19043;51.012;5.648;2022-12-24T09:51:07;29.25;;;9.77;;
32633;SDS011;19043;51.012;5.648;2022-12-24T09:53:35;27.38;;;9.63;;
32633;SDS011;19043;51.012;5.648;2022-12-24T09:56:02;36.28;;;11.23;;
32633;SDS011;19043;51.012;5.648;2022-12-24T09:58:36;23.25;;;10.18;;
32633;SDS011;19043;51.012;5.648;2022-12-24T10:01:02;28.98;;;10.43;;
32633;SDS011;19043;51.012;5.648;2022-12-24T10:03:27;31.25;;;10.73;;
32633;SDS011;19043;51.012;5.648;2022-12-24T10:08:45;30.27;;;11.40;;
32633;SDS011;19043;51.012;5.648;2022-12-24T10:11:18;31.65;;;11.30;;
32633;SDS011;19043;51.012;5.648;2022-12-24T10:13:53;29.33;;;10.30;;
32633;SDS011;19043;51.012;5.648;2022-12-24T10:16:31;30.88;;;10.32;;
32633;SDS011;19043;51.012;5.648;2022-12-24T10:19:04;44.85;;;12.18;;
32633;SDS011;19043;51.012;5.648;2022-12-24T10:24:02;41.33;;;12.27;;
32633;SDS011;19043;51.012;5.648;2022-12-24T10:26:50;30.50;;;10.65;;
32633;SDS011;19043;51.012;5.648;2022-12-24T10:29:18;25.88;;;9.60;;
32633;SDS011;19043;51.012;5.648;2022-12-24T10:31:49;38.60;;;12.82;;
32633;SDS011;19043;51.012;5.648;2022-12-24T10:34:18;39.85;;;11.18;;
32633;SDS011;19043;51.012;5.648;2022-12-24T10:36:45;30.30;;;10.57;;
32633;SDS011;19043;51.012;5.648;2022-12-24T10:39:20;32.28;;;10.55;;
32633;SDS011;19043;51.012;5.648;2022-12-24T10:41:47;31.55;;;12.18;;
32633;SDS011;19043;51.012;5.648;2022-12-24T10:44:14;29.92;;;10.80;;
32633;SDS011;19043;51.012;5.648;2022-12-24T10:46:40;31.70;;;9.23;;
32633;SDS011;19043;51.012;5.648;2022-12-24T10:49:07;32.58;;;10.20;;
32633;SDS011;19043;51.012;5.648;2022-12-24T10:51:36;43.83;;;9.60;;
32633;SDS011;19043;51.012;5.648;2022-12-24T10:54:07;27.77;;;9.90;;
32633;SDS011;19043;51.012;5.648;2022-12-24T10:56:40;34.35;;;10.20;;
32633;SDS011;19043;51.012;5.648;2022-12-24T11:01:53;46.72;;;10.75;;
32633;SDS011;19043;51.012;5.648;2022-12-24T11:04:19;22.27;;;9.15;;
32633;SDS011;19043;51.012;5.648;2022-12-24T11:06:55;28.50;;;8.52;;
32633;SDS011;19043;51.012;5.648;2022-12-24T11:12:16;22.15;;;9.35;;
32633;SDS011;19043;51.012;5.648;2022-12-24T11:14:42;29.17;;;9.95;;
32633;SDS011;19043;51.012;5.648;2022-12-24T11:17:09;33.53;;;9.52;;
32633;SDS011;19043;51.012;5.648;2022-12-24T11:19:43;26.20;;;9.30;;
32633;SDS011;19043;51.012;5.648;2022-12-24T11:22:18;24.60;;;9.90;;
32633;SDS011;19043;51.012;5.648;2022-12-24T11:24:45;22.67;;;8.55;;
32633;SDS011;19043;51.012;5.648;2022-12-24T11:32:30;34.55;;;10.02;;
32633;SDS011;19043;51.012;5.648;2022-12-24T11:34:56;30.27;;;9.20;;
32633;SDS011;19043;51.012;5.648;2022-12-24T11:37:29;26.27;;;8.80;;
32633;SDS011;19043;51.012;5.648;2022-12-24T11:39:57;38.33;;;9.45;;
32633;SDS011;19043;51.012;5.648;2022-12-24T11:44:52;31.80;;;8.73;;
32633;SDS011;19043;51.012;5.648;2022-12-24T11:47:22;28.85;;;9.90;;
32633;SDS011;19043;51.012;5.648;2022-12-24T11:49:59;39.17;;;11.05;;
32633;SDS011;19043;51.012;5.648;2022-12-24T11:52:40;21.77;;;9.10;;
32633;SDS011;19043;51.012;5.648;2022-12-24T11:55:16;30.85;;;9.40;;
32633;SDS011;19043;51.012;5.648;2022-12-24T12:00:34;22.35;;;8.25;;
32633;SDS011;19043;51.012;5.648;2022-12-24T12:03:00;26.00;;;8.77;;
32633;SDS011;19043;51.012;5.648;2022-12-24T12:05:27;26.92;;;9.45;;
32633;SDS011;19043;51.012;5.648;2022-12-24T12:07:55;22.77;;;9.05;;
32633;SDS011;19043;51.012;5.648;2022-12-24T12:10:31;29.70;;;8.68;;
32633;SDS011;19043;51.012;5.648;2022-12-24T12:15:27;29.33;;;8.80;;
32633;SDS011;19043;51.012;5.648;2022-12-24T12:17:55;31.02;;;8.75;;
32633;SDS011;19043;51.012;5.648;2022-12-24T12:20:28;26.92;;;9.55;;
32633;SDS011;19043;51.012;5.648;2022-12-24T12:25:43;30.90;;;7.75;;
32633;SDS011;19043;51.012;5.648;2022-12-24T12:28:06;28.35;;;8.35;;
32633;SDS011;19043;51.012;5.648;2022-12-24T12:30:35;26.13;;;9.02;;
32633;SDS011;19043;51.012;5.648;2022-12-24T12:35:30;23.98;;;8.75;;
32633;SDS011;19043;51.012;5.648;2022-12-24T12:37:59;20.20;;;8.60;;
32633;SDS011;19043;51.012;5.648;2022-12-24T12:40:31;22.92;;;8.20;;
32633;SDS011;19043;51.012;5.648;2022-12-24T12:43:03;21.35;;;8.13;;
32633;SDS011;19043;51.012;5.648;2022-12-24T12:45:41;23.60;;;8.32;;
32633;SDS011;19043;51.012;5.648;2022-12-24T12:50:52;22.70;;;8.85;;
32633;SDS011;19043;51.012;5.648;2022-12-24T13:00:50;23.33;;;8.40;;
32633;SDS011;19043;51.012;5.648;2022-12-24T13:13:29;25.27;;;8.77;;
32633;SDS011;19043;51.012;5.648;2022-12-24T13:18:30;21.43;;;8.03;;
32633;SDS011;19043;51.012;5.648;2022-12-24T13:20:58;29.70;;;8.23;;
32633;SDS011;19043;51.012;5.648;2022-12-24T13:23:24;24.35;;;8.05;;
32633;SDS011;19043;51.012;5.648;2022-12-24T13:25:50;27.73;;;8.25;;
32633;SDS011;19043;51.012;5.648;2022-12-24T13:28:26;23.05;;;8.27;;
32633;SDS011;19043;51.012;5.648;2022-12-24T13:40:53;23.87;;;8.23;;
32633;SDS011;19043;51.012;5.648;2022-12-24T13:43:19;27.50;;;9.05;;
32633;SDS011;19043;51.012;5.648;2022-12-24T13:45:48;24.40;;;8.00;;
32633;SDS011;19043;51.012;5.648;2022-12-24T13:50:42;27.10;;;8.88;;
32633;SDS011;19043;51.012;5.648;2022-12-24T13:55:54;24.27;;;7.72;;
32633;SDS011;19043;51.012;5.648;2022-12-24T13:58:20;22.35;;;8.57;;
32633;SDS011;19043;51.012;5.648;2022-12-24T14:03:24;22.75;;;6.85;;
32633;SDS011;19043;51.012;5.648;2022-12-24T14:10:58;24.15;;;7.10;;
32633;SDS011;19043;51.012;5.648;2022-12-24T14:16:09;23.92;;;7.30;;
32633;SDS011;19043;51.012;5.648;2022-12-24T14:18:40;29.38;;;8.73;;
32633;SDS011;19043;51.012;5.648;2022-12-24T14:21:06;16.67;;;7.95;;
32633;SDS011;19043;51.012;5.648;2022-12-24T14:25:57;28.48;;;8.38;;
32633;SDS011;19043;51.012;5.648;2022-12-24T14:28:27;24.38;;;8.13;;
32633;SDS011;19043;51.012;5.648;2022-12-24T14:31:00;19.17;;;7.57;;
32633;SDS011;19043;51.012;5.648;2022-12-24T14:33:33;29.42;;;8.25;;
32633;SDS011;19043;51.012;5.648;2022-12-24T14:35:59;29.63;;;8.32;;
32633;SDS011;19043;51.012;5.648;2022-12-24T14:38:25;30.20;;;7.93;;
32633;SDS011;19043;51.012;5.648;2022-12-24T14:48:46;26.67;;;8.60;;
32633;SDS011;19043;51.012;5.648;2022-12-24T14:56:27;27.48;;;8.52;;
32633;SDS011;19043;51.012;5.648;2022-12-24T14:58:52;17.17;;;7.85;;
32633;SDS011;19043;51.012;5.648;2022-12-24T15:03:43;18.47;;;6.97;;
32633;SDS011;19043;51.012;5.648;2022-12-24T15:06:09;20.73;;;7.65;;
32633;SDS011;19043;51.012;5.648;2022-12-24T15:08:37;20.75;;;6.97;;
32633;SDS011;19043;51.012;5.648;2022-12-24T15:11:05;21.92;;;7.80;;
32633;SDS011;19043;51.012;5.648;2022-12-24T15:13:40;26.33;;;7.65;;
32633;SDS011;19043;51.012;5.648;2022-12-24T15:16:08;21.25;;;7.47;;
32633;SDS011;19043;51.012;5.648;2022-12-24T15:18:34;24.20;;;9.38;;
32633;SDS011;19043;51.012;5.648;2022-12-24T15:21:01;23.38;;;8.48;;
32633;SDS011;19043;51.012;5.648;2022-12-24T15:23:34;23.55;;;8.45;;
32633;SDS011;19043;51.012;5.648;2022-12-24T15:26:08;18.48;;;6.80;;
32633;SDS011;19043;51.012;5.648;2022-12-24T15:28:38;20.17;;;7.43;;
32633;SDS011;19043;51.012;5.648;2022-12-24T15:31:10;19.10;;;7.72;;
32633;SDS011;19043;51.012;5.648;2022-12-24T15:33:36;25.75;;;6.78;;
32633;SDS011;19043;51.012;5.648;2022-12-24T15:36:01;22.67;;;8.65;;
32633;SDS011;19043;51.012;5.648;2022-12-24T15:38:31;28.02;;;9.05;;
32633;SDS011;19043;51.012;5.648;2022-12-24T15:40:58;25.20;;;8.68;;
32633;SDS011;19043;51.012;5.648;2022-12-24T15:43:23;13.73;;;6.15;;
32633;SDS011;19043;51.012;5.648;2022-12-24T15:45:49;20.67;;;7.15;;
32633;SDS011;19043;51.012;5.648;2022-12-24T15:48:24;17.40;;;7.03;;
32633;SDS011;19043;51.012;5.648;2022-12-24T15:50:54;23.65;;;8.35;;
32633;SDS011;19043;51.012;5.648;2022-12-24T15:53:22;26.30;;;8.85;;
32633;SDS011;19043;51.012;5.648;2022-12-24T15:56:05;31.10;;;9.02;;
32633;SDS011;19043;51.012;5.648;2022-12-24T15:58:32;29.58;;;9.00;;
32633;SDS011;19043;51.012;5.648;2022-12-24T16:01:02;26.20;;;9.13;;
32633;SDS011;19043;51.012;5.648;2022-12-24T16:03:28;18.25;;;8.45;;
32633;SDS011;19043;51.012;5.648;2022-12-24T16:06:06;21.67;;;8.45;;
32633;SDS011;19043;51.012;5.648;2022-12-24T16:08:33;21.13;;;8.15;;
32633;SDS011;19043;51.012;5.648;2022-12-24T16:13:31;26.60;;;8.68;;
32633;SDS011;19043;51.012;5.648;2022-12-24T16:16:01;29.48;;;10.70;;
32633;SDS011;19043;51.012;5.648;2022-12-24T16:18:31;20.50;;;8.20;;
32633;SDS011;19043;51.012;5.648;2022-12-24T16:20:56;17.48;;;7.70;;
32633;SDS011;19043;51.012;5.648;2022-12-24T16:23:23;16.83;;;7.68;;
32633;SDS011;19043;51.012;5.648;2022-12-24T16:25:49;24.83;;;9.40;;
32633;SDS011;19043;51.012;5.648;2022-12-24T16:28:14;30.88;;;9.70;;
32633;SDS011;19043;51.012;5.648;2022-12-24T16:30:40;21.90;;;8.38;;
32633;SDS011;19043;51.012;5.648;2022-12-24T16:33:10;19.63;;;7.28;;
32633;SDS011;19043;51.012;5.648;2022-12-24T16:35:36;18.25;;;8.48;;
32633;SDS011;19043;51.012;5.648;2022-12-24T16:38:02;34.47;;;9.77;;
32633;SDS011;19043;51.012;5.648;2022-12-24T16:40:28;25.08;;;8.15;;
32633;SDS011;19043;51.012;5.648;2022-12-24T16:42:54;21.42;;;7.72;;